Time;durP1;ratioP1;P1;durP2;ratioP2;P2;SDS_P1;SDS_P2;PMS_P1;PMS_P2;Temp;Humidity;BMP_temperature;BMP_pressure;BME280_temperature;BME280_humidity;BME280_pressure;Samples;Min_cycle;Max_cycle;Signal;HPM_P1;HPM_P2
2023/06/03 00:01:21;;;;;;;1999.90;999.90;;;16.10;99.90;;;;;;4950492;28;20019;-70
2023/06/03 00:03:49;;;;;;;1999.90;999.90;;;16.30;99.90;;;;;;4945589;28;20078;-69
2023/06/03 00:06:16;;;;;;;1999.90;999.90;;;16.30;99.90;;;;;;4942540;28;20474;-69
2023/06/03 00:08:43;;;;;;;1999.90;999.90;;;16.30;99.90;;;;;;4944399;28;20493;-71
2023/06/03 00:11:11;;;;;;;1999.90;999.90;;;16.30;99.90;;;;;;4946245;28;20926;-68
2023/06/03 00:13:39;;;;;;;1999.90;999.90;;;16.30;99.90;;;;;;4945120;28;20119;-70
2023/06/03 00:16:07;;;;;;;1999.90;999.90;;;16.50;99.90;;;;;;4947362;28;20051;-72
2023/06/03 00:18:34;;;;;;;1999.90;999.90;;;16.70;99.90;;;;;;4945496;28;20031;-75
2023/06/03 00:21:02;;;;;;;1999.90;999.90;;;16.80;99.90;;;;;;4946088;28;20454;-71
2023/06/03 00:23:31;;;;;;;1999.90;999.90;;;17.00;99.90;;;;;;4938300;28;20036;-69
2023/06/03 00:25:59;;;;;;;1999.90;999.90;;;17.50;99.90;;;;;;4944859;28;20027;-72
2023/06/03 00:28:26;;;;;;;1999.90;999.90;;;18.40;99.90;;;;;;4964732;28;20146;-71
2023/06/03 00:30:54;;;;;;;1999.90;999.90;;;19.20;99.90;;;;;;4955558;28;20023;-73
2023/06/03 00:33:21;;;;;;;1999.90;999.90;;;19.40;99.90;;;;;;4953347;28;20510;-70
2023/06/03 00:35:48;;;;;;;1999.90;999.90;;;20.10;99.90;;;;;;4950681;28;20041;-73
2023/06/03 00:38:16;;;;;;;1999.90;999.90;;;21.10;99.90;;;;;;4944321;28;20027;-73
2023/06/03 00:40:44;;;;;;;1999.90;999.90;;;22.20;99.90;;;;;;4927707;28;20375;-70
2023/06/03 00:43:11;;;;;;;1999.90;999.90;;;23.30;99.90;;;;;;4934998;28;20041;-73
2023/06/03 00:45:38;;;;;;;1999.90;999.90;;;24.00;99.90;;;;;;4945762;28;20498;-73
2023/06/03 00:48:06;;;;;;;1999.90;999.90;;;24.60;99.90;;;;;;4943177;28;20042;-70
2023/06/03 00:50:34;;;;;;;1999.90;999.90;;;24.90;99.90;;;;;;4941165;28;20055;-74
2023/06/03 00:53:03;;;;;;;1999.90;999.90;;;25.20;99.90;;;;;;4946671;28;20459;-70
2023/06/03 00:55:32;;;;;;;1999.90;999.90;;;25.60;99.90;;;;;;4945369;28;20040;-73
2023/06/03 00:57:59;;;;;;;1999.90;999.90;;;26.20;99.90;;;;;;4942512;28;20099;-72
2023/06/03 01:00:27;;;;;;;1999.90;999.90;;;26.80;99.90;;;;;;4942832;28;20035;-70
2023/06/03 01:02:55;;;;;;;1999.90;999.90;;;27.40;98.70;;;;;;4941392;28;20031;-73
2023/06/03 01:05:23;;;;;;;1999.90;999.90;;;27.70;97.60;;;;;;4939942;28;20474;-69
2023/06/03 01:08:21;;;;;;;1999.90;999.90;;;27.90;97.90;;;;;;4943020;28;20074;-73
2023/06/03 01:11:06;;;;;;;1999.90;999.90;;;28.20;97.10;;;;;;4943068;28;20027;-71
2023/06/03 01:13:45;;;;;;;1999.90;999.90;;;28.30;96.20;;;;;;4946494;28;20059;-73
2023/06/03 01:16:15;;;;;;;1999.90;999.90;;;28.50;96.10;;;;;;4937033;28;20039;-69
2023/06/03 01:18:45;;;;;;;1999.90;999.90;;;28.70;95.80;;;;;;4943456;28;20483;-70
2023/06/03 01:21:13;;;;;;;1999.90;999.90;;;29.00;94.50;;;;;;4942512;28;20031;-69
2023/06/03 01:23:46;;;;;;;1999.90;999.90;;;29.20;94.80;;;;;;4944316;28;20031;-70
2023/06/03 01:26:16;;;;;;;1999.90;999.90;;;29.50;93.70;;;;;;4938883;28;20171;-69
2023/06/03 01:28:49;;;;;;;1999.90;999.90;;;29.80;93.60;;;;;;4923469;28;20083;-72
2023/06/03 01:31:17;;;;;;;1999.90;999.90;;;29.70;93.90;;;;;;4944732;28;20035;-69
2023/06/03 01:33:46;;;;;;;1999.90;999.90;;;30.00;93.00;;;;;;4940475;28;20355;-73
2023/06/03 01:36:14;;;;;;;1999.90;999.90;;;29.80;93.30;;;;;;4948999;28;20035;-69
2023/06/03 01:38:42;;;;;;;1999.90;999.90;;;29.80;93.80;;;;;;4942776;28;20086;-71
2023/06/03 01:41:10;;;;;;;1999.90;999.90;;;30.00;93.00;;;;;;4944915;28;20058;-69
2023/06/03 01:43:37;;;;;;;1999.90;999.90;;;30.20;92.70;;;;;;4946528;28;20443;-72
2023/06/03 01:46:05;;;;;;;1999.90;999.90;;;30.20;92.60;;;;;;4941538;28;20071;-70
2023/06/03 01:48:33;;;;;;;1999.90;999.90;;;30.30;92.40;;;;;;4938704;28;20054;-71
2023/06/03 01:51:01;;;;;;;1999.90;999.90;;;30.50;92.50;;;;;;4952182;28;20031;-69
2023/06/03 01:53:28;;;;;;;1999.90;999.90;;;30.70;91.70;;;;;;4941956;28;20039;-71
2023/06/03 01:55:55;;;;;;;1999.90;999.90;;;30.60;92.30;;;;;;4949109;28;20849;-72
2023/06/03 01:58:23;;;;;;;1999.90;999.90;;;30.80;92.20;;;;;;4952768;28;20033;-72
2023/06/03 02:00:50;;;;;;;1999.90;999.90;;;30.90;91.50;;;;;;4950765;28;20431;-73
2023/06/03 02:03:17;;;;;;;1999.90;999.90;;;31.00;90.70;;;;;;4941442;28;20102;-70
2023/06/03 02:05:45;;;;;;;1999.90;999.90;;;30.90;91.00;;;;;;4946985;28;20082;-72
2023/06/03 02:08:12;;;;;;;1999.90;999.90;;;30.70;91.10;;;;;;4933441;28;20906;-70
2023/06/03 02:10:39;;;;;;;1999.90;999.90;;;30.60;91.10;;;;;;4939162;28;20028;-73
2023/06/03 02:13:07;;;;;;;1999.90;999.90;;;30.60;90.90;;;;;;4960662;28;20085;-72
2023/06/03 02:15:34;;;;;;;1999.90;999.90;;;30.50;90.80;;;;;;4963412;28;20015;-72
2023/06/03 02:18:03;;;;;;;1999.90;999.90;;;30.30;91.10;;;;;;4948641;28;20035;-69
2023/06/03 02:20:30;;;;;;;1999.90;999.90;;;30.10;91.50;;;;;;4947878;28;20417;-70
2023/06/03 02:22:58;;;;;;;1999.90;999.90;;;30.30;91.40;;;;;;4925141;28;20042;-70
2023/06/03 02:25:26;;;;;;;1999.90;999.90;;;30.50;91.00;;;;;;4949028;28;20090;-72
2023/06/03 02:27:56;;;;;;;1999.90;999.90;;;30.40;91.40;;;;;;4946876;28;20039;-69
2023/06/03 02:30:25;;;;;;;1999.90;999.90;;;30.40;91.10;;;;;;4943948;28;20074;-71
2023/06/03 02:32:52;;;;;;;1999.90;999.90;;;30.50;90.90;;;;;;4941016;28;20033;-70
2023/06/03 02:35:20;;;;;;;1999.90;999.90;;;30.60;90.40;;;;;;4950250;28;20034;-71
2023/06/03 02:37:47;;;;;;;1999.90;999.90;;;30.50;90.60;;;;;;4948568;28;20019;-69
2023/06/03 02:40:14;;;;;;;1999.90;999.90;;;30.30;91.00;;;;;;4950399;28;20034;-72
2023/06/03 02:42:43;;;;;;;1999.90;999.90;;;30.30;91.10;;;;;;4950634;28;20055;-68
2023/06/03 02:45:10;;;;;;;1999.90;999.90;;;30.40;90.90;;;;;;4953972;28;20032;-71
2023/06/03 02:47:38;;;;;;;1999.90;999.90;;;30.40;90.70;;;;;;4946009;28;20031;-71
2023/06/03 02:50:06;;;;;;;1999.90;999.90;;;29.90;91.20;;;;;;4945081;28;20167;-71
2023/06/03 02:52:36;;;;;;;1999.90;999.90;;;29.80;90.90;;;;;;4946624;28;20131;-70
2023/06/03 02:55:04;;;;;;;1999.90;999.90;;;29.80;90.80;;;;;;4952335;28;20051;-70
2023/06/03 02:57:31;;;;;;;1999.90;999.90;;;29.00;91.30;;;;;;4947354;28;20032;-70
2023/06/03 02:59:58;;;;;;;1999.90;999.90;;;28.00;91.90;;;;;;4945362;28;20089;-72
2023/06/03 03:02:26;;;;;;;1999.90;999.90;;;27.90;92.40;;;;;;4948905;28;20039;-70
2023/06/03 03:04:54;;;;;;;1999.90;999.90;;;28.20;92.80;;;;;;4950433;28;20035;-71
2023/06/03 03:07:26;;;;;;;1999.90;999.90;;;28.30;92.00;;;;;;4938406;28;20035;-69
2023/06/03 03:09:54;;;;;;;1999.90;999.90;;;28.30;92.20;;;;;;4939675;28;20040;-73
2023/06/03 03:12:21;;;;;;;1999.90;999.90;;;28.20;91.70;;;;;;4949821;28;20032;-70
2023/06/03 03:14:48;;;;;;;1999.90;999.90;;;28.10;91.80;;;;;;4947776;28;20035;-72
2023/06/03 03:17:16;;;;;;;1999.90;999.90;;;27.80;91.60;;;;;;4943477;28;20094;-69
2023/06/03 03:19:43;;;;;;;1999.90;999.90;;;27.40;91.60;;;;;;4947735;28;20400;-69
2023/06/03 03:22:10;;;;;;;1999.90;999.90;;;27.10;92.30;;;;;;4947755;28;20051;-70
2023/06/03 03:24:38;;;;;;;1999.90;999.90;;;26.80;92.40;;;;;;4949000;28;20067;-71
2023/06/03 03:27:05;;;;;;;1999.90;999.90;;;26.50;93.20;;;;;;4943955;28;20035;-71
2023/06/03 03:29:33;;;;;;;1999.90;999.90;;;26.20;93.30;;;;;;4950803;28;20038;-71
2023/06/03 03:32:07;;;;;;;1999.90;999.90;;;25.90;93.90;;;;;;4944563;28;20027;-72
2023/06/03 03:34:36;;;;;;;1999.90;999.90;;;25.70;94.00;;;;;;4945387;28;20110;-69
2023/06/03 03:37:10;;;;;;;1999.90;999.90;;;25.50;94.40;;;;;;4939945;28;20059;-70
2023/06/03 03:39:40;;;;;;;1999.90;999.90;;;25.30;94.70;;;;;;4941225;28;20028;-72
2023/06/03 03:42:09;;;;;;;1999.90;999.90;;;25.10;94.80;;;;;;4944457;28;20038;-69
2023/06/03 03:44:37;;;;;;;1999.90;999.90;;;24.90;95.00;;;;;;4943878;28;20123;-72
2023/06/03 03:47:04;;;;;;;1999.90;999.90;;;24.70;95.10;;;;;;4943820;28;20090;-70
2023/06/03 03:49:36;;;;;;;1999.90;999.90;;;24.40;95.40;;;;;;4945821;28;20110;-71
2023/06/03 03:52:05;;;;;;;1999.90;999.90;;;24.20;95.80;;;;;;4943795;28;20091;-72
2023/06/03 03:54:35;;;;;;;1999.90;999.90;;;24.00;95.90;;;;;;4956635;28;20039;-72
2023/06/03 03:57:12;;;;;;;1999.90;999.90;;;23.90;96.30;;;;;;4948191;28;20043;-71
2023/06/03 03:59:39;;;;;;;1999.90;999.90;;;23.70;96.40;;;;;;4955838;28;20097;-72
2023/06/03 04:02:06;;;;;;;1999.90;999.90;;;23.70;96.30;;;;;;4943023;28;20055;-72
2023/06/03 04:04:46;;;;;;;1999.90;999.90;;;23.60;96.70;;;;;;4935974;28;20035;-72
2023/06/03 04:07:21;;;;;;;1999.90;999.90;;;23.60;97.00;;;;;;4945416;28;20035;-72
2023/06/03 04:09:48;;;;;;;1999.90;999.90;;;23.60;97.00;;;;;;4943426;28;20024;-73
2023/06/03 04:12:32;;;;;;;1999.90;999.90;;;23.60;97.10;;;;;;4948714;28;20053;-72
2023/06/03 04:15:00;;;;;;;1999.90;999.90;;;23.50;97.20;;;;;;4951209;28;20035;-73
2023/06/03 04:17:30;;;;;;;1999.90;999.90;;;23.30;96.90;;;;;;4943228;28;20028;-72
2023/06/03 04:19:58;;;;;;;1999.90;999.90;;;23.30;97.60;;;;;;4946949;28;20043;-71
2023/06/03 04:22:26;;;;;;;1999.90;999.90;;;23.20;97.80;;;;;;4947173;28;20063;-71
2023/06/03 04:24:58;;;;;;;1999.90;999.90;;;23.10;98.10;;;;;;4950929;28;20115;-71
2023/06/03 04:27:26;;;;;;;1999.90;999.90;;;23.00;98.00;;;;;;4940828;28;20035;-71
2023/06/03 04:29:54;;;;;;;1999.90;999.90;;;22.90;98.10;;;;;;4944219;28;20031;-72
2023/06/03 04:32:21;;;;;;;1999.90;999.90;;;22.90;98.30;;;;;;4945083;28;20059;-72
2023/06/03 04:34:55;;;;;;;1999.90;999.90;;;22.80;98.20;;;;;;4946239;28;20034;-74
2023/06/03 04:37:23;;;;;;;1999.90;999.90;;;22.80;97.90;;;;;;4941013;28;20082;-74
2023/06/03 04:39:51;;;;;;;1999.90;999.90;;;22.80;97.90;;;;;;4944360;28;20109;-74
2023/06/03 04:42:18;;;;;;;1999.90;999.90;;;22.80;97.90;;;;;;4939633;28;20023;-73
2023/06/03 04:44:45;;;;;;;1999.90;999.90;;;22.70;98.00;;;;;;4946355;28;20047;-70
2023/06/03 04:47:17;;;;;;;1999.90;999.90;;;22.70;97.80;;;;;;4941428;28;20098;-71
2023/06/03 04:49:47;;;;;;;1999.90;999.90;;;22.70;97.90;;;;;;4945253;28;20070;-72
2023/06/03 04:52:14;;;;;;;1999.90;999.90;;;22.70;98.00;;;;;;4943922;28;20078;-70
2023/06/03 04:54:42;;;;;;;1999.90;999.90;;;22.60;98.10;;;;;;4941948;28;20401;-71
2023/06/03 04:57:11;;;;;;;1999.90;999.90;;;22.50;98.30;;;;;;4939688;28;20111;-72
2023/06/03 04:59:38;;;;;;;1999.90;999.90;;;22.50;98.30;;;;;;4942518;28;20062;-73
2023/06/03 05:02:08;;;;;;;1999.90;999.90;;;22.40;98.60;;;;;;4942773;28;20035;-71
2023/06/03 05:04:37;;;;;;;1999.90;999.90;;;22.30;98.60;;;;;;4940570;28;20508;-71
2023/06/03 05:07:04;;;;;;;1999.90;999.90;;;22.30;98.50;;;;;;4941710;28;20067;-73
2023/06/03 05:09:32;;;;;;;1999.90;999.90;;;22.30;98.50;;;;;;4948582;28;20034;-74
2023/06/03 05:11:59;;;;;;;1999.90;999.90;;;22.30;98.70;;;;;;4942181;28;20027;-70
2023/06/03 05:14:26;;;;;;;1999.90;999.90;;;22.30;98.80;;;;;;4946789;28;20031;-70
2023/06/03 05:16:54;;;;;;;1999.90;999.90;;;22.30;98.70;;;;;;4941181;28;20027;-71
2023/06/03 05:19:21;;;;;;;1999.90;999.90;;;22.30;98.60;;;;;;4940282;28;20175;-72
2023/06/03 05:21:49;;;;;;;1999.90;999.90;;;22.30;98.70;;;;;;4943138;28;20038;-70
2023/06/03 05:24:16;;;;;;;1999.90;999.90;;;22.30;98.60;;;;;;4938724;28;20226;-72
2023/06/03 05:26:43;;;;;;;1999.90;999.90;;;22.30;98.60;;;;;;4936560;28;20031;-72
2023/06/03 05:29:10;;;;;;;1999.90;999.90;;;22.40;98.20;;;;;;4951453;28;20031;-72
2023/06/03 05:31:38;;;;;;;1999.90;999.90;;;22.40;98.20;;;;;;4947630;28;20546;-70
2023/06/03 05:34:05;;;;;;;1999.90;999.90;;;22.50;98.10;;;;;;4950506;28;20538;-73
2023/06/03 05:36:32;;;;;;;1999.90;999.90;;;22.50;98.00;;;;;;4956937;28;20033;-73
2023/06/03 05:39:00;;;;;;;1999.90;999.90;;;22.50;98.10;;;;;;4966290;28;20078;-73
2023/06/03 05:41:27;;;;;;;1999.90;999.90;;;22.60;98.20;;;;;;4965077;28;20110;-69
2023/06/03 05:43:54;;;;;;;1999.90;999.90;;;22.60;98.20;;;;;;4960036;28;20035;-71
2023/06/03 05:46:22;;;;;;;1999.90;999.90;;;22.60;98.20;;;;;;4957256;28;20027;-70
2023/06/03 05:48:49;;;;;;;1999.90;999.90;;;22.70;98.20;;;;;;4954972;28;20027;-73
2023/06/03 05:51:16;;;;;;;1999.90;999.90;;;22.70;98.20;;;;;;4953092;28;20079;-72
2023/06/03 05:53:44;;;;;;;1999.90;999.90;;;22.80;98.80;;;;;;4952729;28;20743;-72
2023/06/03 05:56:11;;;;;;;1999.90;999.90;;;22.80;98.80;;;;;;4943180;28;20466;-73
2023/06/03 05:58:39;;;;;;;1999.90;999.90;;;22.60;98.50;;;;;;4948595;28;20031;-70
2023/06/03 06:01:06;;;;;;;1999.90;999.90;;;22.60;98.40;;;;;;4947283;28;20023;-71
2023/06/03 06:03:34;;;;;;;1999.90;999.90;;;22.50;98.40;;;;;;4952466;28;20063;-70
2023/06/03 06:06:01;;;;;;;1999.90;999.90;;;22.40;98.50;;;;;;4950480;28;20020;-72
2023/06/03 06:08:29;;;;;;;1999.90;999.90;;;22.40;98.60;;;;;;4951017;28;20023;-72
2023/06/03 06:10:56;;;;;;;1999.90;999.90;;;22.30;98.70;;;;;;4944125;28;20090;-71
2023/06/03 06:13:24;;;;;;;1999.90;999.90;;;22.30;98.70;;;;;;4947516;28;20499;-70
2023/06/03 06:16:00;;;;;;;1999.90;999.90;;;22.20;98.90;;;;;;4947319;28;20126;-72
2023/06/03 06:18:27;;;;;;;1999.90;999.90;;;22.10;99.10;;;;;;4946422;28;20030;-70
2023/06/03 06:20:54;;;;;;;1999.90;999.90;;;21.90;99.20;;;;;;4946890;28;20037;-73
2023/06/03 06:23:22;;;;;;;1999.90;999.90;;;21.80;99.30;;;;;;4944794;28;20051;-71
2023/06/03 06:25:51;;;;;;;1999.90;999.90;;;21.70;99.40;;;;;;4944077;28;20019;-70
2023/06/03 06:28:26;;;;;;;1999.90;999.90;;;21.40;99.30;;;;;;4956574;28;20031;-71
2023/06/03 06:31:04;;;;;;;1999.90;999.90;;;21.20;99.40;;;;;;4948970;28;20028;-73
2023/06/03 06:33:35;;;;;;;1999.90;999.90;;;21.00;99.80;;;;;;4951278;28;20077;-74
2023/06/03 06:36:31;;;;;;;1999.90;999.90;;;20.80;99.90;;;;;;4955088;28;20111;-70
2023/06/03 06:38:59;;;;;;;1999.90;999.90;;;20.60;99.90;;;;;;4942667;28;20167;-70
2023/06/03 06:41:27;;;;;;;1999.90;999.90;;;20.50;99.90;;;;;;4947763;28;20023;-72
2023/06/03 06:43:55;;;;;;;1999.90;999.90;;;20.40;99.90;;;;;;4949457;28;20499;-72
2023/06/03 06:46:26;;;;;;;1999.90;999.90;;;20.30;99.90;;;;;;4944874;28;20028;-69
2023/06/03 06:48:53;;;;;;;1999.90;999.90;;;20.10;99.90;;;;;;4942648;28;20112;-70
2023/06/03 06:51:20;;;;;;;1999.90;999.90;;;20.10;99.90;;;;;;4944064;28;20035;-71
2023/06/03 06:53:48;;;;;;;1999.90;999.90;;;20.00;99.90;;;;;;4946844;28;20064;-70
2023/06/03 06:56:18;;;;;;;1999.90;999.90;;;19.90;99.90;;;;;;4948947;28;20027;-73
2023/06/03 06:58:46;;;;;;;1999.90;999.90;;;19.80;99.90;;;;;;4949480;28;20027;-72
2023/06/03 07:01:14;;;;;;;1999.90;999.90;;;19.70;99.90;;;;;;4929280;28;20129;-71
2023/06/03 07:03:41;;;;;;;1999.90;999.90;;;19.60;99.90;;;;;;4948364;28;20451;-72
2023/06/03 07:06:08;;;;;;;1999.90;999.90;;;19.60;99.90;;;;;;4948106;28;20458;-71
2023/06/03 07:08:36;;;;;;;1999.90;999.90;;;19.50;99.90;;;;;;4951525;28;20034;-69
2023/06/03 07:11:04;;;;;;;1999.90;999.90;;;19.40;99.90;;;;;;4943369;28;20105;-70
2023/06/03 07:13:32;;;;;;;1999.90;999.90;;;19.40;99.90;;;;;;4942295;28;20382;-72
2023/06/03 07:16:00;;;;;;;1999.90;999.90;;;19.30;99.90;;;;;;4943691;28;20095;-73
2023/06/03 07:18:28;;;;;;;1999.90;999.90;;;19.20;99.90;;;;;;4948505;28;20031;-72
2023/06/03 07:20:55;;;;;;;1999.90;999.90;;;19.10;99.90;;;;;;4952471;28;20028;-74
2023/06/03 07:23:27;;;;;;;1999.90;999.90;;;19.20;99.90;;;;;;4954012;28;20040;-71
2023/06/03 07:25:55;;;;;;;1999.90;999.90;;;19.10;99.90;;;;;;4951384;28;20032;-73
2023/06/03 07:28:35;;;;;;;1999.90;999.90;;;19.10;99.90;;;;;;4949084;28;20031;-72
2023/06/03 07:31:06;;;;;;;1999.90;999.90;;;19.00;99.90;;;;;;4946920;28;20035;-71
2023/06/03 07:33:55;;;;;;;1999.90;999.90;;;19.00;99.90;;;;;;4933039;28;20051;-72
2023/06/03 07:36:26;;;;;;;1999.90;999.90;;;19.00;99.90;;;;;;4947462;28;20027;-71
2023/06/03 07:39:02;;;;;;;1999.90;999.90;;;18.90;99.90;;;;;;4949031;28;20043;-72
2023/06/03 07:41:46;;;;;;;1999.90;999.90;;;18.90;99.90;;;;;;4947623;28;20822;-73
2023/06/03 07:44:15;;;;;;;1999.90;999.90;;;18.90;99.90;;;;;;4940785;28;20040;-71
2023/06/03 07:46:51;;;;;;;1999.90;999.90;;;18.90;99.90;;;;;;4940722;28;20053;-71
2023/06/03 07:49:21;;;;;;;1999.90;999.90;;;18.90;99.90;;;;;;4953704;28;20118;-71
2023/06/03 07:51:50;;;;;;;1999.90;999.90;;;18.80;99.90;;;;;;4942582;28;20043;-70
2023/06/03 07:54:18;;;;;;;1999.90;999.90;;;18.80;99.90;;;;;;4943968;28;20047;-70
2023/06/03 07:56:46;;;;;;;1999.90;999.90;;;18.80;99.90;;;;;;4944730;28;20027;-71
2023/06/03 07:59:15;;;;;;;1999.90;999.90;;;18.70;99.90;;;;;;4949606;28;20023;-70
2023/06/03 08:01:48;;;;;;;1999.90;999.90;;;18.70;99.90;;;;;;4944942;28;20054;-71
2023/06/03 08:04:30;;;;;;;1999.90;999.90;;;18.60;99.90;;;;;;4947054;28;20129;-70
2023/06/03 08:07:00;;;;;;;1999.90;999.90;;;18.70;99.90;;;;;;4940159;28;20394;-71
2023/06/03 08:09:37;;;;;;;1999.90;999.90;;;18.60;99.90;;;;;;4941100;28;20039;-70
2023/06/03 08:12:07;;;;;;;1999.90;999.90;;;18.60;99.90;;;;;;4940356;28;20390;-70
2023/06/03 08:14:37;;;;;;;1999.90;999.90;;;18.60;99.90;;;;;;4946159;28;20486;-70
2023/06/03 08:17:16;;;;;;;1999.90;999.90;;;18.70;99.90;;;;;;4939038;28;20460;-70
2023/06/03 08:19:46;;;;;;;1999.90;999.90;;;18.60;99.90;;;;;;4938924;28;20034;-70
2023/06/03 08:22:41;;;;;;;1999.90;999.90;;;18.60;99.90;;;;;;4940624;28;20035;-69
2023/06/03 08:25:09;;;;;;;1999.90;999.90;;;18.60;99.90;;;;;;4946388;28;20078;-70
2023/06/03 08:27:37;;;;;;;1999.90;999.90;;;18.60;99.90;;;;;;4943988;28;20483;-70
2023/06/03 08:30:05;;;;;;;1999.90;999.90;;;18.60;99.90;;;;;;4939646;28;20534;-73
2023/06/03 08:32:38;;;;;;;1999.90;999.90;;;18.60;99.90;;;;;;4943662;28;20027;-72
2023/06/03 08:35:09;;;;;;;1999.90;999.90;;;18.50;99.90;;;;;;4944824;28;20390;-73
2023/06/03 08:37:37;;;;;;;1999.90;999.90;;;18.50;99.90;;;;;;4944145;28;20031;-71
2023/06/03 08:40:12;;;;;;;1999.90;999.90;;;18.50;99.90;;;;;;4947083;28;20085;-74
2023/06/03 08:42:44;;;;;;;1999.90;999.90;;;18.50;99.90;;;;;;4948143;28;20043;-73
2023/06/03 08:45:16;;;;;;;1999.90;999.90;;;18.50;99.90;;;;;;4951279;28;20027;-72
2023/06/03 08:48:04;;;;;;;1999.90;999.90;;;18.40;99.90;;;;;;4939819;28;20028;-73
2023/06/03 08:50:34;;;;;;;1999.90;999.90;;;18.40;99.90;;;;;;4939416;28;20359;-73
2023/06/03 08:53:08;;;;;;;1999.90;999.90;;;18.40;99.90;;;;;;4946523;28;20058;-74
2023/06/03 08:55:37;;;;;;;1999.90;999.90;;;18.40;99.90;;;;;;4947110;28;20022;-74
2023/06/03 08:58:06;;;;;;;1999.90;999.90;;;18.30;99.90;;;;;;4945557;28;20035;-70
2023/06/03 09:00:35;;;;;;;1999.90;999.90;;;18.30;99.90;;;;;;4950865;28;20027;-72
2023/06/03 09:03:05;;;;;;;1999.90;999.90;;;18.30;99.90;;;;;;4949912;28;20122;-72
2023/06/03 09:05:34;;;;;;;1999.90;999.90;;;18.20;99.90;;;;;;4939064;28;20043;-72
2023/06/03 09:08:01;;;;;;;1999.90;999.90;;;18.20;99.90;;;;;;4955187;28;20042;-73
2023/06/03 09:10:31;;;;;;;1999.90;999.90;;;18.20;99.90;;;;;;4955598;28;20027;-72
2023/06/03 09:13:01;;;;;;;1999.90;999.90;;;18.10;99.90;;;;;;4952984;28;20389;-73
2023/06/03 09:15:30;;;;;;;1999.90;999.90;;;18.20;99.90;;;;;;4946431;28;20075;-72
2023/06/03 09:17:58;;;;;;;1999.90;999.90;;;18.20;99.90;;;;;;4941787;28;20035;-74
2023/06/03 09:20:25;;;;;;;1999.90;999.90;;;18.20;99.90;;;;;;4947906;28;20024;-74
2023/06/03 09:22:53;;;;;;;1999.90;999.90;;;18.20;99.90;;;;;;4949372;28;20126;-75
2023/06/03 09:25:21;;;;;;;1999.90;999.90;;;18.20;99.90;;;;;;4947158;28;20442;-69
2023/06/03 09:27:48;;;;;;;1999.90;999.90;;;18.30;99.90;;;;;;4927262;28;20059;-72
2023/06/03 09:30:17;;;;;;;1999.90;999.90;;;18.30;99.90;;;;;;4937411;28;20132;-71
2023/06/03 09:32:44;;;;;;;1999.90;999.90;;;18.30;99.90;;;;;;4944192;28;20028;-72
2023/06/03 09:35:12;;;;;;;1999.90;999.90;;;18.30;99.90;;;;;;4944298;28;20039;-74
2023/06/03 09:37:39;;;;;;;1999.90;999.90;;;18.20;99.90;;;;;;4944784;28;20517;-69
2023/06/03 09:40:26;;;;;;;1999.90;999.90;;;18.20;99.90;;;;;;4944006;28;20039;-70
2023/06/03 09:42:53;;;;;;;1999.90;999.90;;;18.20;99.90;;;;;;4942323;28;20032;-71
2023/06/03 09:45:37;;;;;;;1999.90;999.90;;;18.20;99.90;;;;;;4938049;28;20035;-73
2023/06/03 09:48:04;;;;;;;1999.90;999.90;;;18.20;99.90;;;;;;4940596;28;20031;-73
2023/06/03 09:50:32;;;;;;;1999.90;999.90;;;18.20;99.90;;;;;;4945312;28;20027;-72
2023/06/03 09:53:01;;;;;;;1999.90;999.90;;;18.20;99.90;;;;;;4947412;28;20052;-74
2023/06/03 09:55:36;;;;;;;1999.90;999.90;;;18.10;99.90;;;;;;4942006;28;20206;-74
2023/06/03 09:58:06;;;;;;;1999.90;999.90;;;18.10;99.90;;;;;;4940904;28;20087;-74
2023/06/03 10:00:47;;;;;;;1999.90;999.90;;;18.10;99.90;;;;;;4943601;28;20039;-71
2023/06/03 10:03:19;;;;;;;1999.90;999.90;;;18.10;99.90;;;;;;4950015;28;20031;-73
2023/06/03 10:05:47;;;;;;;1999.90;999.90;;;18.10;99.90;;;;;;4942483;28;20115;-72
2023/06/03 10:08:14;;;;;;;1999.90;999.90;;;18.10;99.90;;;;;;4939017;28;20024;-74
2023/06/03 10:10:59;;;;;;;1999.90;999.90;;;18.10;99.90;;;;;;4926854;28;20031;-74
2023/06/03 10:13:28;;;;;;;1999.90;999.90;;;18.10;99.90;;;;;;4945841;28;20167;-72
2023/06/03 10:15:58;;;;;;;1999.90;999.90;;;18.20;99.90;;;;;;4946951;28;20038;-73
2023/06/03 10:18:42;;;;;;;1999.90;999.90;;;18.20;99.90;;;;;;4948898;28;20035;-73
2023/06/03 10:21:11;;;;;;;1999.90;999.90;;;18.20;99.90;;;;;;4943823;28;20034;-72
2023/06/03 10:23:40;;;;;;;1999.90;999.90;;;18.20;99.90;;;;;;4948429;28;20054;-72
2023/06/03 10:26:09;;;;;;;1999.90;999.90;;;18.10;99.90;;;;;;4939956;28;20020;-73
2023/06/03 10:28:41;;;;;;;1999.90;999.90;;;18.10;99.90;;;;;;4951544;28;20125;-73
2023/06/03 10:31:08;;;;;;;1999.90;999.90;;;18.10;99.90;;;;;;4946671;28;20023;-73
2023/06/03 10:33:40;;;;;;;1999.90;999.90;;;18.10;99.90;;;;;;4949760;28;20031;-73
2023/06/03 10:36:09;;;;;;;1999.90;999.90;;;18.00;99.90;;;;;;4947006;28;20187;-74
2023/06/03 10:38:39;;;;;;;1999.90;999.90;;;18.00;99.90;;;;;;4948020;28;20043;-74
2023/06/03 10:41:07;;;;;;;1999.90;999.90;;;18.00;99.90;;;;;;4938578;28;20387;-73
2023/06/03 10:43:37;;;;;;;1999.90;999.90;;;17.90;99.90;;;;;;4951428;28;20047;-74
2023/06/03 10:46:05;;;;;;;1999.90;999.90;;;17.90;99.90;;;;;;4943062;28;20046;-72
2023/06/03 10:48:36;;;;;;;1999.90;999.90;;;17.90;99.90;;;;;;4956043;28;20019;-73
2023/06/03 10:51:41;;;;;;;1999.90;999.90;;;17.90;99.90;;;;;;4959048;28;20506;-75
2023/06/03 10:54:08;;;;;;;1999.90;999.90;;;17.90;99.90;;;;;;4955645;28;20110;-74
2023/06/03 10:56:46;;;;;;;1999.90;999.90;;;17.90;99.90;;;;;;4940927;28;20075;-76
2023/06/03 10:59:19;;;;;;;1999.90;999.90;;;17.90;99.90;;;;;;4954120;28;20082;-72
2023/06/03 11:01:58;;;;;;;1999.90;999.90;;;17.90;99.90;;;;;;4946205;28;20023;-72
2023/06/03 11:04:31;;;;;;;1999.90;999.90;;;17.90;99.90;;;;;;4953257;28;20039;-73
2023/06/03 11:06:58;;;;;;;1999.90;999.90;;;17.80;99.90;;;;;;4943714;28;20034;-73
2023/06/03 11:09:39;;;;;;;1999.90;999.90;;;17.80;99.90;;;;;;4953342;28;20053;-74
2023/06/03 11:12:14;;;;;;;1999.90;999.90;;;17.80;99.90;;;;;;4946929;28;20027;-73
2023/06/03 11:14:48;;;;;;;1999.90;999.90;;;17.80;99.90;;;;;;4949104;28;20026;-73
2023/06/03 11:17:18;;;;;;;1999.90;999.90;;;17.80;99.90;;;;;;4945932;28;20053;-73
2023/06/03 11:19:45;;;;;;;1999.90;999.90;;;17.80;99.90;;;;;;4942008;28;20606;-74
2023/06/03 11:22:37;;;;;;;1999.90;999.90;;;17.80;99.90;;;;;;4944599;28;20031;-74
2023/06/03 11:25:05;;;;;;;1999.90;999.90;;;17.80;99.90;;;;;;4940882;28;20048;-75
2023/06/03 11:27:32;;;;;;;1999.90;999.90;;;17.80;99.90;;;;;;4947251;28;20024;-74
2023/06/03 11:30:01;;;;;;;1999.90;999.90;;;17.80;99.90;;;;;;4957704;28;20031;-73
2023/06/03 11:32:36;;;;;;;1999.90;999.90;;;17.80;99.90;;;;;;4953297;28;20027;-71
2023/06/03 11:35:06;;;;;;;1999.90;999.90;;;17.80;99.90;;;;;;4946163;28;20059;-74
2023/06/03 11:37:48;;;;;;;1999.90;999.90;;;17.80;99.90;;;;;;4943463;28;21225;-72
2023/06/03 11:40:20;;;;;;;1999.90;999.90;;;17.80;99.90;;;;;;4945679;28;20101;-75
2023/06/03 11:42:48;;;;;;;1999.90;999.90;;;17.80;99.90;;;;;;4945164;28;20125;-71
2023/06/03 11:45:30;;;;;;;1999.90;999.90;;;17.80;99.90;;;;;;4948219;28;20518;-76
2023/06/03 11:48:07;;;;;;;1999.90;999.90;;;17.80;99.90;;;;;;4947139;28;20023;-72
2023/06/03 11:50:46;;;;;;;1999.90;999.90;;;17.80;99.90;;;;;;4943633;28;20027;-74
2023/06/03 11:53:36;;;;;;;1999.90;999.90;;;17.80;99.90;;;;;;4953032;28;20140;-73
2023/06/03 11:56:09;;;;;;;1999.90;999.90;;;17.80;99.90;;;;;;4926804;28;20039;-74
2023/06/03 11:58:40;;;;;;;1999.90;999.90;;;17.80;99.90;;;;;;4945734;28;20119;-73
2023/06/03 12:01:16;;;;;;;1999.90;999.90;;;17.80;99.90;;;;;;4945444;28;20028;-75
2023/06/03 12:04:04;;;;;;;1999.90;999.90;;;17.90;99.90;;;;;;4947498;28;20078;-73
2023/06/03 12:06:37;;;;;;;1999.90;999.90;;;17.90;99.90;;;;;;4946072;28;20109;-75
2023/06/03 12:09:05;;;;;;;1999.90;999.90;;;17.90;99.90;;;;;;4943507;28;20035;-72
2023/06/03 12:11:37;;;;;;;1999.90;999.90;;;17.80;99.90;;;;;;4947315;28;20475;-72
2023/06/03 12:14:05;;;;;;;1999.90;999.90;;;17.80;99.90;;;;;;4950259;28;20065;-74